Aérodrome :
LOGIN :

S'inscrire | Disclaimer

   EN    FR    IT 

 










Légende :    VFR   VFR Marginal   IFR   IFR Intensif   IFR Très Intensif
Visi : 
Plafond : 
>= 8 km
>= 3000ft
5 à 8 km
1000 à 3000 ft
1500m à 5 km
500 à 1000 ft
800 à 1500m
200 à 500 ft
< 800m
< 200 ft
Symboles :   Orages  Brouillard  Fortes neiges  Fortes précipitations  Vent > 20 kt
SIGMETs :   Divers  Orages  Givrage  Turbulence  Onde Orograph.  Cendres Volcan.







- Altitude de l'aérodrome : 124 ft
- Code IATA : AVN
- Voir les cartes d'approche


LFMV - Avignon Caumont

DERNIER METAR :
  • 280700Z AUTO 12003KT 3400 BR BKN006 OVC070 10/09 Q1006 NOSIG

METARs EXPIRÉS :
  • 280630Z AUTO 16001KT 3200 BR BKN008 OVC076 10/09 Q1006 TEMPO RA BECMG BKN040
  • 280600Z AUTO 00000KT 4000 BR OVC066 09/08 Q1006 BECMG 9999 NSW
  • 280530Z AUTO VRB02KT 3600 BR FEW009 BKN068 OVC200 09/08 Q1006 BECMG 9999 NSW
  • 280500Z AUTO 13002KT 4400 BR FEW049 BKN064 BKN200 10/09 Q1006 TEMPO FEW008TCU BKN010 BECMG 9999 NSW
  • 280430Z AUTO 17001KT 4600 BR FEW041 BKN048 BKN060 10/09 Q1007 TEMPO FEW008TCU BKN010 BECMG 9999 NSW

TAF AMD TAF LFMV
Valide du 28 à 06h jusqu'au 01 à 03h UTC


280637Z 2806/0103 VRB03KT 9999 SCT060
TEMPO 2806/2809 3000 BR BKN008
TEMPO 2812/2818 20013KT SHRA
BECMG 2818/2820 CAVOK
ATIS : +33 4 90 84 32 84
Pas de NOTAMs connus pour ce terrain.



MET'MAP, la Météo Aéronautique d'un coup d'oeil ! - Copyright ORBIFLY Décembre 2007 - Disclaimer

ORBIFLY MET'MAP TEAM :

Programmation & Développement : Alexandra Zaïnal
Conception & Développement : Baudouin d'Aumeries
Co-Programmation & Développement : Marc-Olivier Méhu
Soutien technique & logistique : Manuel Goepfert

Contact : metmap@orbifly.com




SOURCES & CREDITS :

   NOAA